Time;durP1;ratioP1;P1;durP2;ratioP2;P2;SDS_P1;SDS_P2;PMS_P1;PMS_P2;Temp;Humidity;BMP_temperature;BMP_pressure;BME280_temperature;BME280_humidity;BME280_pressure;Samples;Min_cycle;Max_cycle;Signal;HPM_P1;HPM_P2
2023/03/24 00:01:25;;;;;;;7.28;3.55;;;12.50;1.00;;;;;;5002907;28;20034;-75
2023/03/24 00:03:51;;;;;;;7.63;4.40;;;12.50;1.00;;;;;;4999593;28;20142;-75
2023/03/24 00:06:17;;;;;;;6.30;4.03;;;12.50;1.00;;;;;;5006784;28;20045;-76
2023/03/24 00:08:46;;;;;;;6.22;4.40;;;12.50;1.00;;;;;;5005273;28;20038;-75
2023/03/24 00:11:13;;;;;;;6.60;4.38;;;12.40;1.00;;;;;;5006282;28;20505;-75
2023/03/24 00:13:40;;;;;;;6.65;3.97;;;12.40;1.00;;;;;;5003000;28;20041;-75
2023/03/24 00:16:09;;;;;;;8.25;4.03;;;12.50;1.00;;;;;;5009027;28;20387;-75
2023/03/24 00:18:38;;;;;;;7.10;4.20;;;12.50;1.00;;;;;;5004247;28;20030;-76
2023/03/24 00:21:06;;;;;;;7.35;5.05;;;12.50;1.00;;;;;;5008218;28;20368;-76
2023/03/24 00:23:33;;;;;;;5.43;4.53;;;12.40;1.00;;;;;;5004717;28;20045;-81
2023/03/24 00:26:11;;;;;;;6.13;4.15;;;12.40;1.00;;;;;;5004697;28;20041;-75
2023/03/24 00:28:37;;;;;;;6.30;4.05;;;12.30;1.00;;;;;;5004257;28;20050;-76
2023/03/24 00:31:05;;;;;;;8.18;4.18;;;12.30;1.00;;;;;;5003152;28;20045;-78
2023/03/24 00:33:33;;;;;;;7.18;3.88;;;12.30;1.00;;;;;;5003872;28;20030;-80
2023/03/24 00:36:02;;;;;;;5.15;3.40;;;12.30;1.00;;;;;;4986849;28;20049;-75
2023/03/24 00:38:28;;;;;;;7.45;3.83;;;12.30;1.00;;;;;;5004614;28;20042;-75
2023/03/24 00:40:55;;;;;;;5.53;3.80;;;12.20;1.00;;;;;;5002234;28;20041;-75
2023/03/24 00:43:21;;;;;;;6.15;3.10;;;12.10;1.00;;;;;;4998786;28;20039;-76
2023/03/24 00:45:47;;;;;;;5.10;3.17;;;12.10;1.00;;;;;;4983761;28;20027;-75
2023/03/24 00:48:19;;;;;;;6.43;3.03;;;12.10;1.00;;;;;;5008276;28;20051;-75
2023/03/24 00:50:47;;;;;;;5.22;3.00;;;12.10;1.00;;;;;;4996776;28;20046;-76
2023/03/24 00:53:14;;;;;;;4.25;3.05;;;12.10;1.00;;;;;;4998258;28;20046;-75
2023/03/24 00:55:46;;;;;;;7.37;2.97;;;12.00;1.00;;;;;;4994032;28;20045;-75
2023/03/24 00:58:18;;;;;;;4.82;3.10;;;12.00;1.00;;;;;;5006000;28;20032;-75
2023/03/24 01:00:46;;;;;;;5.55;3.20;;;12.00;1.00;;;;;;5000170;28;20030;-76
2023/03/24 01:03:13;;;;;;;4.60;2.90;;;12.00;1.00;;;;;;5006410;28;20505;-74
2023/03/24 01:05:40;;;;;;;5.43;2.78;;;12.00;1.00;;;;;;5015119;28;20030;-76
2023/03/24 01:08:08;;;;;;;5.32;3.00;;;12.10;1.00;;;;;;4994670;28;20057;-75
2023/03/24 01:10:49;;;;;;;4.18;2.63;;;12.10;1.00;;;;;;5004838;28;20037;-79
2023/03/24 01:13:16;;;;;;;5.40;2.60;;;12.20;1.00;;;;;;5000384;28;20045;-78
2023/03/24 01:15:44;;;;;;;5.70;2.72;;;12.20;1.00;;;;;;5001501;28;20030;-76
2023/03/24 01:18:12;;;;;;;4.50;2.40;;;12.20;1.00;;;;;;5003060;28;20034;-76
2023/03/24 01:20:40;;;;;;;5.63;2.53;;;12.20;1.00;;;;;;5003960;28;20129;-75
2023/03/24 01:23:06;;;;;;;4.45;2.75;;;12.20;1.00;;;;;;5002414;28;20025;-75
2023/03/24 01:25:36;;;;;;;4.82;2.72;;;12.20;1.00;;;;;;5006926;28;20041;-80
2023/03/24 01:28:03;;;;;;;5.82;1.92;;;12.10;1.00;;;;;;5009434;28;20050;-76
2023/03/24 01:30:30;;;;;;;3.90;2.10;;;12.10;1.00;;;;;;5002355;28;20045;-76
2023/03/24 01:32:57;;;;;;;4.45;2.38;;;12.10;1.00;;;;;;4999571;28;20041;-76
2023/03/24 01:35:24;;;;;;;4.55;2.72;;;12.10;1.00;;;;;;5003603;28;20026;-76
2023/03/24 01:37:51;;;;;;;6.65;2.88;;;12.00;1.00;;;;;;5003019;28;20048;-76
2023/03/24 01:40:27;;;;;;;3.80;2.40;;;12.00;1.00;;;;;;4984196;28;20046;-76
2023/03/24 01:42:54;;;;;;;2.80;2.13;;;12.00;1.00;;;;;;5005126;28;20029;-75
2023/03/24 01:46:01;;;;;;;4.25;2.70;;;12.10;1.00;;;;;;4985429;28;20057;-76
2023/03/24 01:48:41;;;;;;;4.88;2.17;;;12.10;1.00;;;;;;4971362;28;20046;-76
2023/03/24 01:51:15;;;;;;;3.97;1.90;;;12.10;1.00;;;;;;5001172;28;20360;-75
2023/03/24 01:53:48;;;;;;;2.92;2.20;;;12.10;1.00;;;;;;4999548;28;20045;-75
2023/03/24 01:56:16;;;;;;;4.53;2.55;;;12.20;1.00;;;;;;5002724;28;20459;-77
2023/03/24 01:58:49;;;;;;;3.97;2.60;;;12.10;1.00;;;;;;4984204;28;20037;-75
2023/03/24 02:01:20;;;;;;;2.83;1.85;;;12.10;1.00;;;;;;4999574;28;20038;-79
2023/03/24 02:04:07;;;;;;;8.05;2.30;;;12.20;1.00;;;;;;4997811;28;20043;-76
2023/03/24 02:06:39;;;;;;;4.03;2.30;;;12.10;1.00;;;;;;4988257;28;20076;-81
2023/03/24 02:09:09;;;;;;;3.28;1.90;;;12.10;1.00;;;;;;4982781;28;20058;-75
2023/03/24 02:11:37;;;;;;;4.38;2.67;;;12.10;1.00;;;;;;4996838;28;20026;-81
2023/03/24 02:14:06;;;;;;;7.05;3.22;;;12.20;1.00;;;;;;4985531;28;20045;-76
2023/03/24 02:17:14;;;;;;;8.45;3.55;;;12.20;1.00;;;;;;5004845;28;20045;-78
2023/03/24 02:20:11;;;;;;;5.43;2.63;;;12.10;1.00;;;;;;4973977;28;20054;-76
2023/03/24 02:23:07;;;;;;;3.50;2.28;;;12.10;1.00;;;;;;4982729;28;20053;-80
2023/03/24 02:25:57;;;;;;;4.28;2.30;;;12.10;1.00;;;;;;5004281;28;20042;-79
2023/03/24 02:28:37;;;;;;;5.23;2.07;;;12.20;1.00;;;;;;4987593;28;20045;-76
2023/03/24 02:31:27;;;;;;;4.90;2.27;;;12.40;1.00;;;;;;4999534;28;20042;-76
2023/03/24 02:34:15;;;;;;;4.50;2.20;;;12.50;1.00;;;;;;4983876;28;20349;-75
2023/03/24 02:37:28;;;;;;;3.50;1.83;;;12.60;1.00;;;;;;5001827;28;20276;-76
2023/03/24 02:40:07;;;;;;;3.67;1.90;;;12.70;1.00;;;;;;4931864;29;20572;-76
2023/03/24 02:42:54;;;;;;;3.53;1.70;;;12.80;1.00;;;;;;4995117;28;20042;-76
2023/03/24 02:45:49;;;;;;;3.85;2.03;;;12.90;1.00;;;;;;5000149;28;20039;-75
2023/03/24 02:48:43;;;;;;;3.38;1.90;;;13.00;1.00;;;;;;5006360;28;20037;-75
2023/03/24 02:51:22;;;;;;;3.78;2.08;;;13.00;1.00;;;;;;5000679;28;20057;-76
2023/03/24 02:54:00;;;;;;;3.65;2.00;;;13.00;1.00;;;;;;4997265;28;20361;-76
2023/03/24 02:56:48;;;;;;;5.72;2.20;;;13.00;1.00;;;;;;4973592;28;20383;-76
2023/03/24 02:59:49;;;;;;;5.30;2.17;;;13.00;1.00;;;;;;4987624;28;20148;-75
2023/03/24 03:02:47;;;;;;;3.92;2.33;;;13.00;1.00;;;;;;5000357;28;20479;-76
2023/03/24 03:05:22;;;;;;;3.78;1.58;;;13.10;1.00;;;;;;4985472;28;20043;-76
2023/03/24 03:07:50;;;;;;;4.30;2.30;;;13.10;1.00;;;;;;5005835;28;20030;-75
2023/03/24 03:10:25;;;;;;;3.40;2.20;;;13.20;1.00;;;;;;4984574;28;20062;-76
2023/03/24 03:12:57;;;;;;;4.15;2.60;;;13.40;99.90;;;;;;4999863;28;20053;-75
2023/03/24 03:15:27;;;;;;;2.75;1.83;;;13.50;99.90;;;;;;4989659;28;20049;-76
2023/03/24 03:18:07;;;;;;;4.10;2.50;;;13.50;99.90;;;;;;5002353;28;20045;-75
2023/03/24 03:20:41;;;;;;;4.15;1.95;;;13.50;99.90;;;;;;5005315;28;20494;-75
2023/03/24 03:23:13;;;;;;;3.30;1.90;;;13.50;99.90;;;;;;5000974;28;20412;-78
2023/03/24 03:25:49;;;;;;;2.85;1.88;;;13.50;99.90;;;;;;5002383;28;20379;-81
2023/03/24 03:28:20;;;;;;;3.53;2.15;;;13.50;99.90;;;;;;4994061;28;20049;-76
2023/03/24 03:30:53;;;;;;;3.22;1.60;;;13.50;99.90;;;;;;5001406;28;20034;-76
2023/03/24 03:33:24;;;;;;;3.17;1.90;;;13.60;99.90;;;;;;4995815;28;20042;-76
2023/03/24 03:36:02;;;;;;;2.95;1.80;;;13.60;99.90;;;;;;4987104;28;20046;-76
2023/03/24 03:38:51;;;;;;;4.15;1.90;;;13.50;99.90;;;;;;4981002;28;20137;-76
2023/03/24 03:41:18;;;;;;;4.63;2.10;;;13.60;99.90;;;;;;4985999;28;20057;-77
2023/03/24 03:43:46;;;;;;;3.40;1.92;;;13.60;99.90;;;;;;5006246;28;20042;-77
2023/03/24 03:46:14;;;;;;;3.45;1.60;;;13.60;99.90;;;;;;4986282;28;20042;-76
2023/03/24 03:48:41;;;;;;;4.25;1.83;;;13.60;99.90;;;;;;5003434;28;20069;-80
2023/03/24 03:51:08;;;;;;;4.22;1.80;;;13.70;99.90;;;;;;5009031;28;20037;-79
2023/03/24 03:53:46;;;;;;;3.22;1.80;;;13.70;99.90;;;;;;4994684;28;20046;-75
2023/03/24 03:56:18;;;;;;;5.25;2.83;;;13.80;99.90;;;;;;4986487;28;20042;-75
2023/03/24 03:58:55;;;;;;;6.75;3.15;;;14.00;99.90;;;;;;5006931;28;20468;-76
2023/03/24 04:01:25;;;;;;;4.35;2.58;;;14.10;99.90;;;;;;4985776;28;20034;-74
2023/03/24 04:04:40;;;;;;;5.50;2.75;;;14.20;99.90;;;;;;5001435;28;20042;-74
2023/03/24 04:07:37;;;;;;;3.05;2.15;;;14.20;99.90;;;;;;4975419;28;20068;-76
2023/03/24 04:10:49;;;;;;;4.65;2.20;;;14.30;99.90;;;;;;4980085;28;20049;-76
2023/03/24 04:13:40;;;;;;;4.10;2.60;;;14.30;99.90;;;;;;5003043;28;20038;-74
2023/03/24 04:16:21;;;;;;;4.05;2.20;;;14.40;99.90;;;;;;5001308;28;20042;-74
2023/03/24 04:19:16;;;;;;;4.30;1.92;;;14.40;99.90;;;;;;4994965;28;20057;-74
2023/03/24 04:22:11;;;;;;;4.00;1.73;;;14.40;99.90;;;;;;4987060;28;20041;-74
2023/03/24 04:24:44;;;;;;;4.40;2.28;;;14.40;99.90;;;;;;5000434;28;20045;-77
2023/03/24 04:27:45;;;;;;;4.40;1.98;;;14.40;99.90;;;;;;4988357;28;20037;-74
2023/03/24 04:30:15;;;;;;;3.30;1.80;;;14.40;99.90;;;;;;4976596;28;20061;-74
2023/03/24 04:32:57;;;;;;;3.25;1.77;;;14.40;99.90;;;;;;4995999;28;20040;-81
2023/03/24 04:35:39;;;;;;;5.97;2.17;;;14.40;99.90;;;;;;4983238;28;20038;-75
2023/03/24 04:38:35;;;;;;;5.60;2.50;;;14.30;99.90;;;;;;4988816;28;20039;-74
2023/03/24 04:41:27;;;;;;;2.33;1.85;;;14.40;99.90;;;;;;4981602;28;20046;-75
2023/03/24 04:44:05;;;;;;;4.68;2.20;;;14.30;1.00;;;;;;4970263;28;20041;-74
2023/03/24 04:46:38;;;;;;;4.25;2.60;;;14.30;1.00;;;;;;4986885;28;20506;-75
2023/03/24 04:49:18;;;;;;;2.67;2.00;;;14.20;1.00;;;;;;4984392;28;20046;-75
2023/03/24 04:51:45;;;;;;;2.92;2.28;;;14.20;1.00;;;;;;4984892;28;20402;-79
2023/03/24 04:54:21;;;;;;;4.82;2.65;;;14.20;1.00;;;;;;4985872;28;20386;-75
2023/03/24 04:57:00;;;;;;;3.47;2.03;;;14.10;1.00;;;;;;4987029;28;20475;-74
2023/03/24 04:59:32;;;;;;;3.20;2.15;;;14.10;1.00;;;;;;4969805;28;20049;-75
2023/03/24 05:02:00;;;;;;;;;;;14.10;1.00;;;;;;4984334;28;20481;-75
2023/03/24 05:04:27;;;;;;;2.50;1.55;;;14.00;1.00;;;;;;5003279;28;19921;-76
2023/03/24 05:06:54;;;;;;;3.65;2.08;;;13.90;1.00;;;;;;5006080;28;20042;-76
2023/03/24 05:09:24;;;;;;;3.38;2.47;;;13.80;1.00;;;;;;4981995;28;20043;-75
2023/03/24 05:11:51;;;;;;;3.97;2.60;;;13.70;1.00;;;;;;4990609;28;20049;-76
2023/03/24 05:14:19;;;;;;;3.15;2.35;;;13.60;1.00;;;;;;4983023;28;20035;-75
2023/03/24 05:16:46;;;;;;;7.30;2.67;;;13.50;1.00;;;;;;5008462;28;20038;-82
2023/03/24 05:19:14;;;;;;;4.78;2.92;;;13.50;1.00;;;;;;4984544;28;20038;-76
2023/03/24 05:21:43;;;;;;;3.47;2.50;;;13.40;1.00;;;;;;4979252;28;20039;-75
2023/03/24 05:24:11;;;;;;;5.10;2.85;;;13.30;1.00;;;;;;4991907;28;20587;-78
2023/03/24 05:26:37;;;;;;;5.35;3.47;;;13.20;1.00;;;;;;4985056;28;20491;-79
2023/03/24 05:29:12;;;;;;;6.93;3.58;;;13.20;1.00;;;;;;5003753;28;20043;-78
2023/03/24 05:31:39;;;;;;;6.22;3.65;;;13.10;1.00;;;;;;5001471;28;20057;-79
2023/03/24 05:34:08;;;;;;;6.45;3.17;;;13.00;1.00;;;;;;5013150;28;20049;-78
2023/03/24 05:36:46;;;;;;;8.02;2.67;;;13.10;1.00;;;;;;5005498;28;20053;-81
2023/03/24 05:39:14;;;;;;;3.17;2.00;;;13.00;1.00;;;;;;5000460;28;20049;-77
2023/03/24 05:41:49;;;;;;;3.08;2.08;;;13.10;1.00;;;;;;5000884;28;20038;-79
2023/03/24 05:44:16;;;;;;;3.53;2.00;;;13.10;1.00;;;;;;5001815;28;20415;-77
2023/03/24 05:46:51;;;;;;;3.10;1.75;;;13.10;1.00;;;;;;4997868;28;20140;-79
2023/03/24 05:49:17;;;;;;;4.85;2.20;;;13.10;1.00;;;;;;5011260;28;20043;-77
2023/03/24 05:51:44;;;;;;;3.00;1.65;;;13.10;1.00;;;;;;4997783;28;20038;-77
2023/03/24 05:54:10;;;;;;;3.83;1.83;;;13.10;1.00;;;;;;5017758;28;20049;-78
2023/03/24 05:56:41;;;;;;;4.15;2.50;;;13.10;1.00;;;;;;5004782;28;20037;-74
2023/03/24 05:59:27;;;;;;;2.72;1.88;;;13.10;1.00;;;;;;5000135;28;20042;-75
2023/03/24 06:02:07;;;;;;;4.38;1.98;;;13.00;1.00;;;;;;4994046;28;20042;-75
2023/03/24 06:05:00;;;;;;;3.90;2.35;;;13.00;1.00;;;;;;4993553;28;20030;-75
2023/03/24 06:07:29;;;;;;;4.35;1.98;;;13.10;1.00;;;;;;5004941;28;20383;-76
2023/03/24 06:10:01;;;;;;;3.97;2.15;;;13.10;1.00;;;;;;5004116;28;20057;-76
2023/03/24 06:12:32;;;;;;;2.92;2.03;;;13.20;1.00;;;;;;4997998;28;20077;-78
2023/03/24 06:15:02;;;;;;;2.53;2.00;;;13.20;1.00;;;;;;4999110;28;20034;-75
2023/03/24 06:17:30;;;;;;;3.20;2.33;;;13.20;1.00;;;;;;5004529;28;20049;-76
2023/03/24 06:20:04;;;;;;;3.72;2.25;;;13.20;1.00;;;;;;5004830;28;20049;-78
2023/03/24 06:22:49;;;;;;;3.95;2.60;;;13.20;1.00;;;;;;5003145;28;20388;-77
2023/03/24 06:25:20;;;;;;;6.47;2.38;;;13.20;1.00;;;;;;5003052;28;20042;-76
2023/03/24 06:28:04;;;;;;;4.63;2.70;;;13.20;1.00;;;;;;4996509;28;20046;-75
2023/03/24 06:30:33;;;;;;;3.58;2.58;;;13.20;1.00;;;;;;5017868;28;20049;-76
2023/03/24 06:32:59;;;;;;;5.13;2.67;;;13.20;1.00;;;;;;5016230;28;20050;-75
2023/03/24 06:35:25;;;;;;;4.97;2.95;;;13.20;1.00;;;;;;5002046;28;20423;-74
2023/03/24 06:38:13;;;;;;;3.00;2.42;;;13.20;1.00;;;;;;4994551;28;20045;-75
2023/03/24 06:40:39;;;;;;;5.43;2.88;;;13.20;1.00;;;;;;5002078;28;20046;-75
2023/03/24 06:43:07;;;;;;;3.35;2.42;;;13.20;1.00;;;;;;4996610;28;20042;-75
2023/03/24 06:45:38;;;;;;;3.88;2.60;;;13.30;1.00;;;;;;5017043;28;20064;-76
2023/03/24 06:48:05;;;;;;;5.07;2.60;;;13.30;1.00;;;;;;5001163;28;20053;-75
2023/03/24 06:50:34;;;;;;;4.60;2.88;;;13.30;1.00;;;;;;4997410;28;20062;-77
2023/03/24 06:53:04;;;;;;;4.10;3.50;;;13.20;1.00;;;;;;5000943;28;20049;-76
2023/03/24 06:55:35;;;;;;;6.10;3.63;;;13.20;1.00;;;;;;5002560;28;20044;-76
2023/03/24 06:58:02;;;;;;;5.35;2.45;;;13.20;1.00;;;;;;4999599;28;20053;-76
2023/03/24 07:00:55;;;;;;;4.03;2.92;;;13.20;1.00;;;;;;4988694;28;20050;-76
2023/03/24 07:03:26;;;;;;;5.82;3.10;;;13.20;1.00;;;;;;5016417;28;20038;-75
2023/03/24 07:06:22;;;;;;;3.63;2.70;;;13.20;1.00;;;;;;5005828;28;20044;-76
2023/03/24 07:08:52;;;;;;;4.80;3.00;;;13.20;1.00;;;;;;5000006;28;20050;-76
2023/03/24 07:11:20;;;;;;;4.22;3.15;;;13.20;1.00;;;;;;5002091;28;20484;-76
2023/03/24 07:13:53;;;;;;;3.55;2.83;;;13.30;1.00;;;;;;4996176;28;20039;-76
2023/03/24 07:16:20;;;;;;;5.43;2.75;;;13.40;1.00;;;;;;5007257;28;20038;-75
2023/03/24 07:18:53;;;;;;;6.07;2.90;;;13.50;1.00;;;;;;4995334;28;20475;-76
2023/03/24 07:21:20;;;;;;;4.25;2.90;;;13.40;1.00;;;;;;5017703;28;20050;-75
2023/03/24 07:23:49;;;;;;;3.42;2.45;;;13.40;1.00;;;;;;4999581;28;20049;-80
2023/03/24 07:26:17;;;;;;;3.58;3.00;;;13.50;1.00;;;;;;5006216;28;20042;-75
2023/03/24 07:28:46;;;;;;;5.57;2.85;;;13.50;1.00;;;;;;5002712;28;20050;-75
2023/03/24 07:31:15;;;;;;;3.28;2.17;;;13.50;1.00;;;;;;4996638;28;20062;-76
2023/03/24 07:33:43;;;;;;;3.60;2.30;;;13.60;1.00;;;;;;5005582;28;20480;-75
2023/03/24 07:36:09;;;;;;;4.75;2.70;;;13.60;1.00;;;;;;5020327;28;20313;-75
2023/03/24 07:38:38;;;;;;;2.60;2.17;;;13.70;1.00;;;;;;5005543;28;20061;-75
2023/03/24 07:41:08;;;;;;;5.05;2.30;;;13.70;1.00;;;;;;5000236;28;20365;-75
2023/03/24 07:43:38;;;;;;;4.65;3.40;;;13.70;1.00;;;;;;4999909;28;20045;-74
2023/03/24 07:46:05;;;;;;;5.10;3.00;;;13.70;1.00;;;;;;5004978;28;20038;-75
2023/03/24 07:48:35;;;;;;;3.42;2.35;;;13.70;1.00;;;;;;5007528;28;20433;-74
2023/03/24 07:51:02;;;;;;;4.47;2.80;;;13.60;1.00;;;;;;5007379;28;20058;-76
2023/03/24 07:53:47;;;;;;;4.07;3.00;;;13.60;1.00;;;;;;5002982;28;20046;-75
2023/03/24 07:56:21;;;;;;;4.20;3.35;;;13.60;1.00;;;;;;5005386;28;20052;-75
2023/03/24 07:58:53;;;;;;;3.75;2.67;;;13.50;1.00;;;;;;4984151;28;20050;-76
2023/03/24 08:01:28;;;;;;;4.10;2.92;;;13.50;1.00;;;;;;5003264;28;20050;-75
2023/03/24 08:03:58;;;;;;;5.72;2.60;;;13.50;1.00;;;;;;5017297;28;20049;-75
2023/03/24 08:06:43;;;;;;;4.05;2.55;;;13.50;1.00;;;;;;5002845;28;20049;-75
2023/03/24 08:09:11;;;;;;;4.65;3.15;;;13.50;1.00;;;;;;5006239;28;20033;-75
2023/03/24 08:11:38;;;;;;;4.10;3.13;;;13.50;1.00;;;;;;5013692;28;20038;-75
2023/03/24 08:14:04;;;;;;;4.47;2.80;;;13.50;1.00;;;;;;5004467;28;20026;-74
2023/03/24 08:16:30;;;;;;;5.63;3.40;;;13.60;1.00;;;;;;5005672;28;20026;-76
2023/03/24 08:18:57;;;;;;;8.00;2.65;;;13.60;1.00;;;;;;5005826;28;20351;-76
2023/03/24 08:21:24;;;;;;;4.63;2.55;;;13.50;1.00;;;;;;5005954;28;20044;-76
2023/03/24 08:23:51;;;;;;;7.13;3.25;;;13.60;1.00;;;;;;5009037;28;20041;-76
2023/03/24 08:26:21;;;;;;;3.88;2.70;;;13.60;1.00;;;;;;5006901;28;20038;-76
2023/03/24 08:28:48;;;;;;;4.95;2.50;;;13.50;1.00;;;;;;5007680;28;20050;-76
2023/03/24 08:31:14;;;;;;;4.05;2.58;;;13.50;1.00;;;;;;5003313;28;20038;-77
2023/03/24 08:33:40;;;;;;;4.70;2.47;;;13.50;1.00;;;;;;5007323;28;20057;-77
2023/03/24 08:36:07;;;;;;;4.22;2.00;;;13.60;1.00;;;;;;5004423;28;20359;-76
2023/03/24 08:38:37;;;;;;;3.63;2.47;;;13.60;1.00;;;;;;5008631;28;20030;-76
2023/03/24 08:41:08;;;;;;;5.60;2.72;;;13.50;1.00;;;;;;5003070;28;20045;-75
2023/03/24 08:43:35;;;;;;;3.47;2.30;;;13.60;1.00;;;;;;5000401;28;20030;-76
2023/03/24 08:46:01;;;;;;;4.47;2.25;;;13.60;1.00;;;;;;5005467;28;20034;-75
2023/03/24 08:48:29;;;;;;;3.25;2.22;;;13.60;1.00;;;;;;5007161;28;20034;-76
2023/03/24 08:50:55;;;;;;;4.80;2.40;;;13.60;1.00;;;;;;5004049;28;20038;-75
2023/03/24 08:53:21;;;;;;;4.28;2.28;;;13.60;1.00;;;;;;4986694;28;20483;-76
2023/03/24 08:55:50;;;;;;;4.72;2.40;;;13.60;1.00;;;;;;5004248;28;20030;-76
2023/03/24 08:58:18;;;;;;;3.35;2.10;;;13.60;1.00;;;;;;5002054;28;20038;-76
2023/03/24 09:00:46;;;;;;;3.83;2.03;;;13.60;1.00;;;;;;5002103;28;20069;-77
2023/03/24 09:03:17;;;;;;;4.85;2.35;;;13.60;1.00;;;;;;5006867;28;20131;-75
2023/03/24 09:05:46;;;;;;;4.22;1.80;;;13.60;1.00;;;;;;5004725;28;20034;-75
2023/03/24 09:08:14;;;;;;;2.97;2.05;;;13.60;1.00;;;;;;5006103;28;20373;-75
2023/03/24 09:10:41;;;;;;;3.38;2.03;;;13.50;1.00;;;;;;5003942;28;20076;-76
2023/03/24 09:13:07;;;;;;;4.03;2.35;;;13.60;1.00;;;;;;5009687;28;20033;-75
2023/03/24 09:15:33;;;;;;;6.10;2.03;;;13.60;1.00;;;;;;5005027;28;20038;-75
2023/03/24 09:18:00;;;;;;;5.55;1.77;;;13.60;1.00;;;;;;4994395;28;20041;-75
2023/03/24 09:20:26;;;;;;;3.97;2.05;;;13.70;1.00;;;;;;5005518;28;20034;-75
2023/03/24 09:22:53;;;;;;;4.43;2.38;;;13.70;1.00;;;;;;5007090;28;20384;-75
2023/03/24 09:25:20;;;;;;;3.30;2.22;;;13.70;1.00;;;;;;4986944;28;20037;-75
2023/03/24 09:27:49;;;;;;;4.13;1.85;;;13.70;1.00;;;;;;5002951;28;20058;-75
2023/03/24 09:30:17;;;;;;;3.08;1.83;;;13.70;1.00;;;;;;5001030;28;20045;-75
2023/03/24 09:32:44;;;;;;;5.50;2.63;;;13.60;1.00;;;;;;4992843;28;20037;-76
2023/03/24 09:35:11;;;;;;;2.95;1.90;;;13.70;1.00;;;;;;5004893;28;20034;-75
2023/03/24 09:37:39;;;;;;;2.72;1.80;;;13.70;1.00;;;;;;5002375;28;20033;-75
2023/03/24 09:40:06;;;;;;;2.85;1.77;;;13.70;1.00;;;;;;5004024;28;20049;-75
2023/03/24 09:42:36;;;;;;;3.88;2.28;;;13.70;1.00;;;;;;5008905;28;20117;-75
2023/03/24 09:45:12;;;;;;;6.03;2.67;;;13.80;1.00;;;;;;5011210;28;20041;-76
2023/03/24 09:47:57;;;;;;;5.03;2.85;;;13.70;1.00;;;;;;5000364;28;20036;-75
2023/03/24 09:50:31;;;;;;;3.78;1.85;;;13.70;1.00;;;;;;5004155;28;20045;-76
2023/03/24 09:53:26;;;;;;;4.30;1.83;;;13.80;1.00;;;;;;5001084;28;20041;-74
2023/03/24 09:55:53;;;;;;;2.97;1.80;;;13.80;1.00;;;;;;4994100;28;20045;-75
2023/03/24 09:58:19;;;;;;;3.72;1.88;;;13.80;1.00;;;;;;5005937;28;20049;-75
2023/03/24 10:00:46;;;;;;;3.63;2.35;;;13.80;1.00;;;;;;5003181;28;20045;-75
2023/03/24 10:03:20;;;;;;;4.68;1.80;;;13.80;1.00;;;;;;5003338;28;20030;-75
2023/03/24 10:05:59;;;;;;;3.88;1.90;;;13.80;1.00;;;;;;5003821;28;20041;-75
2023/03/24 10:08:37;;;;;;;3.10;2.25;;;13.80;1.00;;;;;;5002628;28;20045;-74
2023/03/24 10:11:23;;;;;;;3.15;2.00;;;13.80;1.00;;;;;;4983730;28;20057;-75
2023/03/24 10:14:37;;;;;;;3.25;2.03;;;14.00;1.00;;;;;;4994845;28;20031;-75
2023/03/24 10:17:40;;;;;;;5.85;2.08;;;14.30;1.00;;;;;;4993111;28;20051;-76
2023/03/24 10:20:15;;;;;;;5.70;2.90;;;14.50;1.00;;;;;;4997214;28;20045;-75
2023/03/24 10:23:10;;;;;;;4.32;2.58;;;14.40;1.00;;;;;;5002723;28;20034;-75
2023/03/24 10:26:01;;;;;;;6.97;2.97;;;14.50;1.00;;;;;;4988090;28;20044;-74
2023/03/24 10:28:42;;;;;;;7.38;3.28;;;14.40;1.00;;;;;;5002395;28;20046;-74
2023/03/24 10:31:15;;;;;;;4.80;2.25;;;14.30;1.00;;;;;;5001155;28;20399;-75
2023/03/24 10:33:43;;;;;;;5.47;2.63;;;14.20;1.00;;;;;;4999973;28;20034;-75
2023/03/24 10:36:19;;;;;;;3.50;2.25;;;14.20;1.00;;;;;;5001880;28;20468;-75
2023/03/24 10:38:46;;;;;;;3.85;2.50;;;14.20;1.00;;;;;;4980250;28;20040;-75
2023/03/24 10:41:22;;;;;;;4.88;2.65;;;14.20;1.00;;;;;;4986077;28;20057;-74
2023/03/24 10:43:50;;;;;;;6.85;2.70;;;14.20;1.00;;;;;;4971908;28;20030;-74
2023/03/24 10:46:25;;;;;;;3.13;1.98;;;14.20;1.00;;;;;;4995466;28;20456;-75
2023/03/24 10:49:05;;;;;;;7.57;2.97;;;14.20;1.00;;;;;;4991235;28;20029;-75
2023/03/24 10:51:33;;;;;;;4.65;2.45;;;14.20;1.00;;;;;;4999846;28;20041;-77
2023/03/24 10:54:30;;;;;;;7.28;3.15;;;14.20;1.00;;;;;;5000221;28;20041;-79
2023/03/24 10:56:56;;;;;;;7.05;2.30;;;14.10;1.00;;;;;;4981034;28;20472;-74
2023/03/24 10:59:34;;;;;;;2.65;1.60;;;13.90;1.00;;;;;;5002478;28;20048;-73
2023/03/24 11:02:22;;;;;;;3.22;0.70;;;13.60;1.00;;;;;;4998416;28;20042;-78
2023/03/24 11:05:17;;;;;;;2.13;1.10;;;13.10;1.00;;;;;;5005817;28;20041;-75
2023/03/24 11:07:46;;;;;;;1.15;0.40;;;12.60;1.00;;;;;;4998709;28;20045;-74
2023/03/24 11:10:19;;;;;;;2.03;0.40;;;12.40;1.00;;;;;;5002350;28;20046;-75
2023/03/24 11:12:50;;;;;;;0.82;0.52;;;12.30;1.00;;;;;;5000197;28;20038;-75
2023/03/24 11:15:20;;;;;;;2.40;0.40;;;12.40;1.00;;;;;;4998395;28;20038;-75
2023/03/24 11:17:52;;;;;;;1.33;0.50;;;12.60;1.00;;;;;;5007411;28;20026;-75
2023/03/24 11:20:39;;;;;;;1.13;0.30;;;12.80;1.00;;;;;;5002946;28;20034;-76
2023/03/24 11:23:15;;;;;;;0.75;0.40;;;13.00;1.00;;;;;;5005010;28;20030;-74
2023/03/24 11:25:47;;;;;;;1.65;0.43;;;13.00;1.00;;;;;;5005797;28;20040;-75
2023/03/24 11:28:19;;;;;;;1.75;0.40;;;13.00;1.00;;;;;;4998719;28;20050;-75
2023/03/24 11:30:51;;;;;;;2.38;0.60;;;13.20;1.00;;;;;;4998326;28;20109;-74
2023/03/24 11:33:22;;;;;;;2.20;0.40;;;13.20;1.00;;;;;;4979788;28;20046;-75
2023/03/24 11:35:48;;;;;;;3.03;0.50;;;13.30;1.00;;;;;;5003043;28;20046;-75
2023/03/24 11:38:17;;;;;;;1.20;0.40;;;13.30;1.00;;;;;;5002934;28;20049;-76
2023/03/24 11:40:57;;;;;;;2.53;0.60;;;13.30;1.00;;;;;;5003864;28;20030;-75
2023/03/24 11:43:24;;;;;;;2.03;0.50;;;13.20;1.00;;;;;;4999745;28;20041;-75
2023/03/24 11:46:12;;;;;;;2.58;0.50;;;13.30;1.00;;;;;;5002475;28;20276;-75
2023/03/24 11:48:51;;;;;;;0.55;0.40;;;13.30;1.00;;;;;;5001142;28;20057;-75
2023/03/24 11:51:34;;;;;;;6.32;0.68;;;13.30;1.00;;;;;;4999796;28;20387;-78
2023/03/24 11:54:05;;;;;;;1.38;0.40;;;13.30;1.00;;;;;;4998424;28;20380;-75
2023/03/24 11:56:40;;;;;;;0.90;0.40;;;13.40;1.00;;;;;;5008395;28;20355;-76
2023/03/24 11:59:45;;;;;;;1.83;0.77;;;13.40;1.00;;;;;;5003954;28;20471;-76
2023/03/24 12:02:14;;;;;;;0.93;0.50;;;13.50;1.00;;;;;;4980384;28;20042;-75
2023/03/24 12:05:20;;;;;;;3.28;0.63;;;13.50;1.00;;;;;;5003937;28;20041;-76
2023/03/24 12:08:01;;;;;;;1.52;0.50;;;13.60;1.00;;;;;;4984088;28;20053;-76
2023/03/24 12:10:44;;;;;;;1.52;0.40;;;13.90;1.00;;;;;;4999778;28;20042;-76
2023/03/24 12:13:36;;;;;;;1.27;0.40;;;14.10;1.00;;;;;;4987717;28;20057;-76
2023/03/24 12:16:39;;;;;;;1.85;0.75;;;14.30;1.00;;;;;;4999644;28;20463;-76
2023/03/24 12:19:40;;;;;;;1.52;0.60;;;14.40;1.00;;;;;;4999131;28;20077;-77
2023/03/24 12:22:36;;;;;;;1.40;0.50;;;14.30;1.00;;;;;;5001514;28;20042;-76
2023/03/24 12:25:27;;;;;;;32.58;21.00;;;14.30;1.00;;;;;;4990148;28;20042;-76
2023/03/24 12:28:17;;;;;;;317.35;225.75;;;14.40;1.00;;;;;;4987566;28;20072;-76
2023/03/24 12:31:19;;;;;;;81.55;46.53;;;14.60;1.00;;;;;;5003430;28;20037;-76
2023/03/24 12:34:02;;;;;;;2.10;0.90;;;14.80;1.00;;;;;;4980836;28;20042;-76
2023/03/24 12:36:42;;;;;;;1.55;0.52;;;15.20;99.90;;;;;;5003454;28;20030;-77
2023/03/24 12:39:31;;;;;;;1.53;0.70;;;15.50;99.90;;;;;;5004804;28;20468;-77
2023/03/24 12:42:05;;;;;;;4.90;2.00;;;15.90;99.90;;;;;;5006909;28;20053;-76
2023/03/24 12:44:40;;;;;;;2.35;0.80;;;16.00;99.90;;;;;;5004388;28;20053;-76
2023/03/24 12:47:27;;;;;;;2.03;0.88;;;15.90;99.90;;;;;;5003119;28;20048;-77
2023/03/24 12:50:15;;;;;;;1.88;1.00;;;15.80;99.90;;;;;;5004316;28;20038;-76
2023/03/24 12:53:06;;;;;;;2.08;0.80;;;15.60;99.90;;;;;;5002408;28;20064;-76
2023/03/24 12:55:47;;;;;;;2.05;1.35;;;15.50;99.90;;;;;;5003976;28;20029;-77
2023/03/24 12:58:17;;;;;;;;;;;15.50;99.90;;;;;;4996537;28;20490;-77
2023/03/24 13:01:01;;;;;;;1.52;0.90;;;15.40;99.90;;;;;;5005398;28;19917;-73
2023/03/24 13:03:44;;;;;;;2.03;0.88;;;15.50;99.90;;;;;;5000158;28;20060;-74
2023/03/24 13:06:58;;;;;;;2.67;1.23;;;15.80;99.90;;;;;;5004109;28;20061;-74
2023/03/24 13:09:39;;;;;;;3.22;1.08;;;16.10;99.90;;;;;;5000990;28;20046;-75
2023/03/24 13:12:34;;;;;;;1.38;0.98;;;16.40;99.90;;;;;;5001419;28;20394;-75
2023/03/24 13:15:00;;;;;;;2.78;1.00;;;16.70;99.90;;;;;;4997086;28;20049;-74
2023/03/24 13:17:31;;;;;;;4.72;1.45;;;16.60;99.90;;;;;;5003516;28;20037;-75
2023/03/24 13:20:05;;;;;;;2.45;1.20;;;16.50;99.90;;;;;;5005538;28;20040;-74
2023/03/24 13:22:37;;;;;;;2.83;1.42;;;16.60;99.90;;;;;;5005212;28;20407;-75
2023/03/24 13:25:18;;;;;;;1.85;1.25;;;16.70;99.90;;;;;;5003158;28;20518;-75
2023/03/24 13:27:48;;;;;;;2.30;1.00;;;16.80;99.90;;;;;;5001758;28;20053;-76
2023/03/24 13:30:35;;;;;;;3.22;1.30;;;16.90;99.90;;;;;;5007272;28;20037;-75
2023/03/24 13:33:13;;;;;;;2.60;0.98;;;17.10;99.90;;;;;;4979877;28;20054;-75
2023/03/24 13:35:51;;;;;;;5.40;1.15;;;17.00;99.90;;;;;;5004962;28;20353;-75
2023/03/24 13:39:02;;;;;;;2.78;1.35;;;16.60;99.90;;;;;;5007854;28;20030;-74